createdAt,value
2018-09-26T00:00:32.969Z,5.20
2018-09-26T00:03:08.662Z,5.20
2018-09-26T00:05:36.982Z,5.20
2018-09-26T00:08:05.268Z,5.20
2018-09-26T00:10:33.540Z,5.30
2018-09-26T00:13:01.828Z,5.30
2018-09-26T00:15:30.175Z,5.20
2018-09-26T00:17:58.554Z,5.20
2018-09-26T00:20:26.907Z,5.20
2018-09-26T00:22:55.265Z,5.10
2018-09-26T00:25:23.630Z,5.10
2018-09-26T00:27:51.969Z,5.10
2018-09-26T00:30:20.427Z,5.10
2018-09-26T00:32:48.781Z,5.00
2018-09-26T00:35:17.474Z,5.00
2018-09-26T00:37:45.846Z,5.00
2018-09-26T00:40:14.222Z,5.10
2018-09-26T00:42:42.649Z,5.10
2018-09-26T00:45:11.048Z,5.10
2018-09-26T00:47:41.507Z,5.10
2018-09-26T00:50:11.946Z,5.00
2018-09-26T00:52:40.315Z,5.00
2018-09-26T00:55:08.681Z,4.90
2018-09-26T00:57:36.935Z,4.90
2018-09-26T01:00:05.593Z,4.80
2018-09-26T01:02:33.925Z,4.80
2018-09-26T01:05:02.206Z,4.70
2018-09-26T01:07:30.457Z,4.70
2018-09-26T01:09:58.768Z,4.70
2018-09-26T01:12:27.143Z,4.60
2018-09-26T01:14:55.487Z,4.70
2018-09-26T01:17:23.756Z,4.60
2018-09-26T01:19:52.075Z,4.70
2018-09-26T01:22:20.516Z,4.70
2018-09-26T01:24:48.859Z,4.80
2018-09-26T01:27:17.180Z,4.70
2018-09-26T01:29:45.479Z,4.70
2018-09-26T01:32:13.776Z,4.70
2018-09-26T01:34:42.220Z,4.70
2018-09-26T01:37:10.502Z,4.60
2018-09-26T01:39:38.785Z,4.60
2018-09-26T01:42:07.067Z,4.50
2018-09-26T01:44:35.439Z,4.50
2018-09-26T01:47:03.714Z,4.50
2018-09-26T01:49:32.004Z,4.50
2018-09-26T01:52:00.314Z,4.50
2018-09-26T01:54:28.680Z,4.50
2018-09-26T01:56:57.106Z,4.40
2018-09-26T01:59:25.374Z,4.40
2018-09-26T02:01:53.728Z,4.40
2018-09-26T02:04:22.046Z,4.30
2018-09-26T02:06:50.378Z,4.30
2018-09-26T02:09:18.795Z,4.30
2018-09-26T02:11:47.191Z,4.30
2018-09-26T02:14:15.475Z,4.30
2018-09-26T02:16:43.767Z,4.60
2018-09-26T02:19:12.015Z,4.70
2018-09-26T02:21:40.314Z,4.50
2018-09-26T02:24:08.760Z,4.50
2018-09-26T02:26:37.079Z,4.50
2018-09-26T02:29:05.537Z,4.50
2018-09-26T02:31:33.828Z,4.50
2018-09-26T02:34:02.172Z,4.50
2018-09-26T02:36:30.613Z,4.50
2018-09-26T02:38:58.952Z,4.40
2018-09-26T02:41:27.266Z,4.40
2018-09-26T02:43:55.619Z,4.40
2018-09-26T02:46:23.967Z,4.50
2018-09-26T02:48:57.791Z,4.40
2018-09-26T02:51:26.092Z,4.40
2018-09-26T02:53:54.569Z,4.40
2018-09-26T02:56:23.011Z,4.40
2018-09-26T02:58:51.303Z,4.30
2018-09-26T03:01:19.600Z,4.30
2018-09-26T03:03:47.866Z,4.30
2018-09-26T03:06:16.188Z,4.30
2018-09-26T03:08:44.589Z,4.30
2018-09-26T03:11:13.000Z,4.30
2018-09-26T03:13:41.289Z,4.20
2018-09-26T03:16:09.597Z,4.20
2018-09-26T03:18:38.230Z,4.20
2018-09-26T03:21:06.635Z,4.20
2018-09-26T03:23:34.900Z,4.20
2018-09-26T03:26:03.176Z,4.30
2018-09-26T03:28:31.467Z,4.30
2018-09-26T03:30:59.784Z,4.40
2018-09-26T03:33:28.144Z,4.40
2018-09-26T03:35:56.598Z,4.40
2018-09-26T03:38:25.107Z,4.50
2018-09-26T03:40:53.594Z,4.60
2018-09-26T03:43:22.979Z,4.60
2018-09-26T03:45:51.286Z,4.60
2018-09-26T03:48:19.627Z,4.70
2018-09-26T03:50:47.897Z,4.70
2018-09-26T03:53:16.344Z,4.70
2018-09-26T03:55:44.667Z,4.80
2018-09-26T03:58:13.042Z,4.80
2018-09-26T04:00:41.336Z,4.70
2018-09-26T04:03:09.619Z,4.70
2018-09-26T04:05:37.883Z,4.80
2018-09-26T04:08:06.240Z,4.70
2018-09-26T04:10:34.607Z,4.70
2018-09-26T04:13:03.067Z,4.70
2018-09-26T04:15:31.417Z,4.80
2018-09-26T04:17:59.799Z,4.80
2018-09-26T04:20:28.320Z,4.80
2018-09-26T04:22:56.627Z,4.80
2018-09-26T04:25:24.898Z,4.80
2018-09-26T04:27:53.253Z,4.90
2018-09-26T04:30:21.649Z,4.90
2018-09-26T04:32:50.217Z,4.90
2018-09-26T04:35:18.443Z,4.90
2018-09-26T04:37:46.859Z,4.90
2018-09-26T04:40:15.171Z,4.90
2018-09-26T04:42:43.457Z,4.90
2018-09-26T04:45:11.715Z,4.90
2018-09-26T04:47:40.024Z,4.80
2018-09-26T04:50:08.319Z,4.90
2018-09-26T04:52:36.790Z,4.80
2018-09-26T04:55:05.232Z,4.80
2018-09-26T04:57:33.640Z,4.80
2018-09-26T05:00:01.972Z,4.80
2018-09-26T05:02:30.356Z,4.80
2018-09-26T05:04:58.772Z,4.80
2018-09-26T05:07:27.075Z,4.80
2018-09-26T05:09:55.323Z,4.80
2018-09-26T05:12:23.619Z,4.80
2018-09-26T05:14:51.975Z,4.80
2018-09-26T05:17:20.324Z,4.90
2018-09-26T05:19:48.628Z,4.90
2018-09-26T05:22:16.947Z,4.90
2018-09-26T05:24:45.286Z,5.00
2018-09-26T05:27:13.743Z,5.00
2018-09-26T05:29:42.196Z,5.10
2018-09-26T05:32:10.548Z,5.10
2018-09-26T05:34:38.803Z,5.20
2018-09-26T05:37:07.135Z,5.20
2018-09-26T05:43:07.562Z,5.50
2018-09-26T05:45:35.814Z,5.60
2018-09-26T05:48:04.253Z,5.90
2018-09-26T05:50:32.577Z,6.20
2018-09-26T05:53:00.866Z,6.40
2018-09-26T05:55:29.143Z,6.60
2018-09-26T05:57:57.468Z,7.00
2018-09-26T06:00:25.784Z,7.20
2018-09-26T06:02:54.108Z,7.30
2018-09-26T06:05:22.472Z,7.30
2018-09-26T06:07:50.803Z,7.50
2018-09-26T06:10:19.117Z,7.80
2018-09-26T06:12:47.411Z,8.10
2018-09-26T06:15:15.739Z,8.10
2018-09-26T06:17:44.031Z,8.50
2018-09-26T06:20:12.330Z,8.60
2018-09-26T06:22:41.086Z,8.60
2018-09-26T06:25:09.463Z,8.40
2018-09-26T06:27:37.796Z,8.30
2018-09-26T06:30:07.527Z,8.60
2018-09-26T06:32:35.915Z,8.60
2018-09-26T06:35:04.370Z,8.80
2018-09-26T06:37:32.700Z,9.10
2018-09-26T06:40:01.009Z,9.30
2018-09-26T06:42:29.554Z,9.30
2018-09-26T06:44:57.945Z,9.30
2018-09-26T06:47:26.361Z,9.50
2018-09-26T06:49:54.641Z,9.30
2018-09-26T06:52:23.008Z,9.30
2018-09-26T06:54:51.343Z,9.30
2018-09-26T06:57:19.660Z,9.20
2018-09-26T06:59:48.012Z,9.10
2018-09-26T07:02:16.374Z,9.20
2018-09-26T07:04:44.922Z,9.20
2018-09-26T07:07:13.280Z,9.20
2018-09-26T07:09:41.539Z,9.20
2018-09-26T07:12:09.854Z,9.40
2018-09-26T07:14:38.235Z,9.30
2018-09-26T07:17:06.710Z,9.40
2018-09-26T07:19:35.168Z,9.40
2018-09-26T07:22:03.435Z,9.40
2018-09-26T07:24:31.735Z,9.30
2018-09-26T07:27:00.125Z,9.50
2018-09-26T07:29:28.498Z,10.00
2018-09-26T07:31:56.890Z,11.00
2018-09-26T07:34:30.711Z,11.60
2018-09-26T07:36:59.580Z,11.40
2018-09-26T07:39:27.955Z,11.20
2018-09-26T07:41:56.352Z,11.40
2018-09-26T07:44:24.820Z,11.60
2018-09-26T07:46:53.328Z,11.90
2018-09-26T07:49:21.639Z,12.40
2018-09-26T07:51:49.967Z,13.30
2018-09-26T07:54:18.792Z,13.70
2018-09-26T07:56:47.409Z,14.00
2018-09-26T07:59:15.826Z,14.50
2018-09-26T08:01:44.230Z,14.90
2018-09-26T08:04:12.636Z,15.60
2018-09-26T08:19:39.219Z,15.90
2018-09-26T08:22:07.601Z,15.30
2018-09-26T08:24:35.912Z,15.50
2018-09-26T08:27:04.365Z,15.50
2018-09-26T08:29:32.696Z,15.30
2018-09-26T08:32:01.171Z,15.30
2018-09-26T08:34:29.538Z,15.70
2018-09-26T08:36:57.856Z,15.70
2018-09-26T08:39:26.209Z,15.60
2018-09-26T08:41:54.557Z,15.40
2018-09-26T08:44:22.890Z,14.40
2018-09-26T08:46:51.270Z,14.40
2018-09-26T08:49:19.649Z,14.40
2018-09-26T08:51:48.045Z,14.50
2018-09-26T08:54:16.417Z,14.10
2018-09-26T08:56:44.815Z,14.30
2018-09-26T08:59:13.855Z,14.20
2018-09-26T09:01:46.447Z,13.90
2018-09-26T09:04:15.749Z,13.60
2018-09-26T09:06:44.357Z,13.60
2018-09-26T09:09:12.704Z,13.70
2018-09-26T09:11:41.071Z,13.60
2018-09-26T09:14:09.464Z,13.30
2018-09-26T09:16:37.763Z,13.30
2018-09-26T09:19:06.134Z,13.10
2018-09-26T09:21:34.527Z,13.30
2018-09-26T09:24:03.086Z,13.30
2018-09-26T09:26:32.406Z,13.70
2018-09-26T09:29:00.795Z,13.90
2018-09-26T09:31:29.139Z,14.50
2018-09-26T09:33:57.537Z,14.80
2018-09-26T09:36:25.985Z,15.40
2018-09-26T09:38:54.302Z,15.80
2018-09-26T09:41:22.683Z,16.30
2018-09-26T09:43:51.138Z,16.60
2018-09-26T09:46:19.448Z,16.70
2018-09-26T09:48:47.827Z,17.10
2018-09-26T09:51:17.304Z,17.40
2018-09-26T09:53:46.874Z,17.20
2018-09-26T09:56:15.236Z,16.70
2018-09-26T09:58:43.844Z,16.60
2018-09-26T10:01:17.810Z,16.60
2018-09-26T10:03:46.275Z,16.80
2018-09-26T10:06:14.734Z,17.00
2018-09-26T10:08:43.107Z,17.50
2018-09-26T10:11:11.497Z,18.40
2018-09-26T10:13:39.943Z,18.50
2018-09-26T10:16:08.331Z,18.60
2018-09-26T10:18:36.690Z,18.00
2018-09-26T10:21:05.538Z,17.70
2018-09-26T10:23:33.835Z,17.70
2018-09-26T10:26:02.334Z,17.50
2018-09-26T10:28:30.705Z,17.50
2018-09-26T10:30:59.095Z,17.90
2018-09-26T10:33:27.804Z,18.00
2018-09-26T10:35:56.179Z,17.70
2018-09-26T10:38:24.582Z,17.50
2018-09-26T10:40:53.092Z,17.70
2018-09-26T10:43:21.399Z,18.00
2018-09-26T10:45:50.016Z,18.10
2018-09-26T10:48:18.407Z,18.00
2018-09-26T10:50:46.804Z,17.60
2018-09-26T10:53:15.096Z,17.50
2018-09-26T10:55:43.776Z,17.00
2018-09-26T10:58:12.098Z,17.20
2018-09-26T11:00:40.444Z,17.50
2018-09-26T11:03:08.828Z,17.30
2018-09-26T11:05:37.194Z,17.20
2018-09-26T11:08:05.615Z,17.70
2018-09-26T11:10:34.069Z,18.10
2018-09-26T11:13:02.420Z,18.10
2018-09-26T11:18:29.891Z,17.90
2018-09-26T11:20:58.248Z,17.70
2018-09-26T11:23:26.587Z,17.60
2018-09-26T11:25:54.986Z,17.70
2018-09-26T11:28:23.397Z,17.90
2018-09-26T11:30:51.755Z,17.80
2018-09-26T11:33:20.178Z,17.20
2018-09-26T11:35:48.469Z,17.10
2018-09-26T11:38:16.920Z,16.80
2018-09-26T11:40:45.232Z,16.80
2018-09-26T11:43:13.596Z,17.30
2018-09-26T11:45:41.881Z,17.10
2018-09-26T11:48:10.186Z,17.30
2018-09-26T11:50:38.584Z,17.20
2018-09-26T11:53:06.900Z,17.20
2018-09-26T11:55:35.197Z,17.20
2018-09-26T11:58:03.467Z,17.20
2018-09-26T12:00:31.792Z,17.20
2018-09-26T12:03:00.101Z,17.40
2018-09-26T12:05:28.397Z,17.30
2018-09-26T12:07:56.767Z,17.80
2018-09-26T12:10:25.201Z,17.40
2018-09-26T12:12:53.459Z,17.30
2018-09-26T12:15:21.832Z,17.10
2018-09-26T12:17:50.258Z,17.00
2018-09-26T12:20:18.607Z,16.90
2018-09-26T12:22:46.955Z,16.70
2018-09-26T12:25:15.304Z,17.00
2018-09-26T12:27:43.661Z,17.40
2018-09-26T12:30:12.065Z,17.20
2018-09-26T12:32:40.371Z,17.20
2018-09-26T12:35:08.663Z,17.40
2018-09-26T12:37:37.117Z,17.20
2018-09-26T12:40:05.662Z,17.30
2018-09-26T12:42:33.981Z,17.30
2018-09-26T12:45:02.472Z,17.20
2018-09-26T12:47:30.968Z,17.20
2018-09-26T12:49:59.440Z,17.10
2018-09-26T12:52:31.065Z,17.00
2018-09-26T12:55:00.554Z,17.00
2018-09-26T12:57:29.088Z,17.20
2018-09-26T12:59:57.567Z,17.20
2018-09-26T13:02:25.976Z,17.20
2018-09-26T13:04:54.395Z,17.30
2018-09-26T13:07:22.788Z,17.30
2018-09-26T13:09:51.151Z,17.10
2018-09-26T13:12:19.646Z,17.10
2018-09-26T13:14:48.136Z,17.20
2018-09-26T13:17:17.079Z,17.10
2018-09-26T13:19:45.544Z,16.90
2018-09-26T13:22:13.991Z,16.90
2018-09-26T13:24:42.347Z,16.90
2018-09-26T13:27:10.734Z,16.90
2018-09-26T13:29:43.731Z,17.10
2018-09-26T13:32:16.829Z,17.10
2018-09-26T13:34:45.353Z,17.20
2018-09-26T13:37:13.896Z,17.30
2018-09-26T13:39:42.227Z,17.20
2018-09-26T13:42:10.685Z,17.20
2018-09-26T13:44:39.047Z,17.20
2018-09-26T13:47:07.521Z,17.20
2018-09-26T13:49:35.898Z,17.20
2018-09-26T13:52:04.266Z,17.50
2018-09-26T13:54:32.704Z,17.50
2018-09-26T13:57:01.036Z,17.40
2018-09-26T13:59:29.561Z,17.50
2018-09-26T14:01:57.989Z,17.50
2018-09-26T14:04:26.408Z,17.30
2018-09-26T14:06:54.735Z,17.30
2018-09-26T14:09:23.080Z,17.10
2018-09-26T14:11:51.653Z,16.90
2018-09-26T14:14:20.113Z,16.80
2018-09-26T14:16:48.615Z,16.90
2018-09-26T14:19:18.752Z,17.00
2018-09-26T14:21:47.435Z,17.10
2018-09-26T14:24:16.082Z,17.10
2018-09-26T14:26:44.924Z,17.20
2018-09-26T14:29:13.820Z,17.20
2018-09-26T14:31:42.528Z,17.20
2018-09-26T14:34:11.262Z,17.20
2018-09-26T14:36:40.048Z,17.40
2018-09-26T14:39:13.549Z,17.50
2018-09-26T14:41:43.315Z,17.30
2018-09-26T14:44:12.060Z,17.40
2018-09-26T14:46:40.662Z,17.30
2018-09-26T14:49:09.334Z,17.10
2018-09-26T14:51:38.149Z,17.10
2018-09-26T14:54:06.980Z,17.00
2018-09-26T14:56:35.833Z,16.90
2018-09-26T14:59:04.503Z,16.90
2018-09-26T15:01:33.225Z,16.90
2018-09-26T15:04:01.952Z,16.80
2018-09-26T15:06:30.748Z,16.80
2018-09-26T15:08:59.576Z,16.80
2018-09-26T15:11:28.277Z,16.80
2018-09-26T15:13:57.039Z,16.70
2018-09-26T15:16:25.908Z,16.60
2018-09-26T15:18:54.587Z,16.60
2018-09-26T15:21:23.453Z,16.60
2018-09-26T15:23:52.115Z,16.60
2018-09-26T15:26:20.861Z,16.60
2018-09-26T15:28:49.697Z,16.70
2018-09-26T15:31:18.366Z,16.60
2018-09-26T15:33:47.006Z,16.60
2018-09-26T15:36:22.484Z,16.50
2018-09-26T15:38:51.217Z,16.50
2018-09-26T15:41:19.773Z,16.50
2018-09-26T15:43:48.404Z,16.50
2018-09-26T15:46:17.102Z,16.40
2018-09-26T15:48:45.645Z,16.40
2018-09-26T15:51:14.376Z,16.40
2018-09-26T15:53:43.147Z,16.40
2018-09-26T15:56:11.835Z,16.40
2018-09-26T15:58:40.556Z,16.30
2018-09-26T16:01:09.222Z,16.20
2018-09-26T16:03:37.727Z,16.20
2018-09-26T16:06:06.087Z,16.10
2018-09-26T16:08:34.460Z,16.10
2018-09-26T16:11:02.890Z,16.00
2018-09-26T16:13:31.206Z,16.00
2018-09-26T16:15:59.480Z,16.00
2018-09-26T16:18:27.871Z,16.00
2018-09-26T16:20:56.238Z,16.10
2018-09-26T16:23:24.595Z,16.10
2018-09-26T16:25:53.064Z,16.00
2018-09-26T16:28:21.391Z,16.00
2018-09-26T16:30:49.828Z,16.00
2018-09-26T16:33:18.131Z,15.90
2018-09-26T16:35:46.487Z,15.90
2018-09-26T16:38:14.893Z,15.80
2018-09-26T16:40:43.240Z,15.80
2018-09-26T16:43:11.691Z,15.70
2018-09-26T16:45:39.927Z,15.70
2018-09-26T16:48:08.285Z,15.60
2018-09-26T16:50:36.563Z,15.60
2018-09-26T16:53:05.979Z,15.60
2018-09-26T16:55:34.271Z,15.50
2018-09-26T16:58:02.537Z,15.50
2018-09-26T17:00:30.849Z,15.40
2018-09-26T17:02:59.243Z,15.40
2018-09-26T17:05:27.707Z,15.20
2018-09-26T17:07:56.076Z,15.20
2018-09-26T17:10:24.507Z,15.30
2018-09-26T17:12:52.831Z,15.30
2018-09-26T17:15:21.094Z,15.40
2018-09-26T17:17:49.412Z,15.30
2018-09-26T17:20:17.795Z,15.40
2018-09-26T17:22:46.169Z,15.30
2018-09-26T17:25:14.501Z,15.40
2018-09-26T17:27:43.083Z,15.40
2018-09-26T17:30:11.453Z,15.40
2018-09-26T17:32:39.758Z,15.40
2018-09-26T17:35:08.391Z,15.50
2018-09-26T17:37:36.784Z,15.50
2018-09-26T17:40:06.254Z,15.50
2018-09-26T17:42:34.724Z,15.50
2018-09-26T17:45:03.083Z,15.50
2018-09-26T17:47:31.362Z,15.50
2018-09-26T17:49:59.721Z,15.50
2018-09-26T17:52:28.155Z,15.50
2018-09-26T17:54:56.537Z,15.50
2018-09-26T17:57:24.971Z,15.50
2018-09-26T17:59:53.287Z,15.50
2018-09-26T18:02:21.749Z,15.40
2018-09-26T18:04:50.250Z,15.40
2018-09-26T18:07:18.674Z,15.50
2018-09-26T18:09:47.306Z,15.50
2018-09-26T18:12:15.707Z,15.40
2018-09-26T18:14:44.439Z,15.50
2018-09-26T18:17:12.749Z,15.50
2018-09-26T18:19:41.149Z,15.50
2018-09-26T18:22:09.644Z,15.50
2018-09-26T18:24:38.082Z,15.50
2018-09-26T18:27:06.770Z,15.50
2018-09-26T18:29:35.236Z,15.50
2018-09-26T18:32:03.606Z,15.40
2018-09-26T18:34:32.088Z,15.40
2018-09-26T18:37:01.290Z,15.40
2018-09-26T18:39:29.820Z,15.50
2018-09-26T18:41:58.185Z,15.50
2018-09-26T18:44:26.863Z,15.50
2018-09-26T18:46:55.533Z,15.50
2018-09-26T18:49:23.840Z,15.50
2018-09-26T18:51:52.397Z,15.50
2018-09-26T18:54:20.911Z,15.50
2018-09-26T18:56:49.280Z,15.50
2018-09-26T18:59:17.772Z,15.50
2018-09-26T19:01:46.065Z,15.60
2018-09-26T19:04:14.524Z,15.60
2018-09-26T19:06:42.993Z,15.60
2018-09-26T19:09:12.149Z,15.60
2018-09-26T19:11:40.645Z,15.60
2018-09-26T19:14:09.082Z,15.60
2018-09-26T19:16:37.476Z,15.60
2018-09-26T19:19:06.138Z,15.60
2018-09-26T19:21:34.641Z,15.60
2018-09-26T19:24:03.159Z,15.60
2018-09-26T19:26:31.773Z,15.50
2018-09-26T19:29:00.230Z,15.50
2018-09-26T19:31:28.695Z,15.50
2018-09-26T19:33:57.273Z,15.60
2018-09-26T19:36:25.770Z,15.60
2018-09-26T19:38:54.100Z,15.60
2018-09-26T19:41:22.463Z,15.60
2018-09-26T19:43:50.881Z,15.60
2018-09-26T19:46:19.339Z,15.60
2018-09-26T19:48:47.714Z,15.50
2018-09-26T19:51:16.215Z,15.50
2018-09-26T19:53:44.571Z,15.60
2018-09-26T19:56:12.981Z,15.50
2018-09-26T19:58:41.485Z,15.50
2018-09-26T20:01:09.999Z,15.40
2018-09-26T20:05:02.799Z,15.40
2018-09-26T20:07:31.144Z,15.40
2018-09-26T20:09:59.451Z,15.40
2018-09-26T20:12:27.906Z,15.40
2018-09-26T20:14:58.507Z,15.40
2018-09-26T20:17:26.888Z,15.40
2018-09-26T20:19:55.360Z,15.40
2018-09-26T20:22:23.913Z,15.50
2018-09-26T20:24:52.526Z,15.50
2018-09-26T20:27:20.989Z,15.50
2018-09-26T20:29:52.128Z,15.50
2018-09-26T20:32:27.133Z,15.50
2018-09-26T20:37:44.698Z,15.40
2018-09-26T20:40:14.324Z,15.50
2018-09-26T20:42:43.502Z,15.50
2018-09-26T20:45:12.676Z,15.60
2018-09-26T20:47:41.987Z,15.60
2018-09-26T20:50:10.397Z,15.60
2018-09-26T20:52:38.963Z,15.70
2018-09-26T20:55:07.325Z,15.70
2018-09-26T20:57:35.710Z,15.60
2018-09-26T21:00:04.591Z,15.60
2018-09-26T21:02:32.957Z,15.60
2018-09-26T21:05:02.060Z,15.60
2018-09-26T21:07:30.499Z,15.50
2018-09-26T21:09:59.046Z,15.50
2018-09-26T21:12:27.565Z,15.30
2018-09-26T21:14:56.206Z,15.40
2018-09-26T21:17:24.752Z,15.40
2018-09-26T21:19:53.087Z,15.40
2018-09-26T21:22:21.480Z,15.30
2018-09-26T21:24:49.918Z,15.30
2018-09-26T21:27:19.724Z,15.30
2018-09-26T21:29:50.524Z,15.20
2018-09-26T21:32:18.884Z,15.20
2018-09-26T21:34:47.209Z,15.10
2018-09-26T21:37:15.647Z,15.10
2018-09-26T21:39:43.979Z,15.10
2018-09-26T21:42:12.346Z,15.00
2018-09-26T21:44:40.661Z,15.00
2018-09-26T21:47:09.003Z,15.00
2018-09-26T21:49:37.295Z,14.90
2018-09-26T21:52:05.576Z,15.00
2018-09-26T21:54:34.929Z,15.00
2018-09-26T21:58:40.022Z,15.00
2018-09-26T22:01:13.808Z,15.10
2018-09-26T22:03:42.120Z,15.00
2018-09-26T22:06:10.881Z,15.10
2018-09-26T22:08:39.149Z,15.10
2018-09-26T22:11:07.461Z,15.00
2018-09-26T22:13:35.823Z,15.10
2018-09-26T22:16:04.119Z,15.10
2018-09-26T22:18:32.478Z,15.10
2018-09-26T22:21:00.755Z,15.10
2018-09-26T22:23:29.065Z,15.10
2018-09-26T22:25:57.490Z,15.10
2018-09-26T22:28:25.815Z,15.10
2018-09-26T22:30:54.230Z,15.10
2018-09-26T22:33:22.558Z,15.10
2018-09-26T22:35:50.851Z,15.10
2018-09-26T22:38:19.255Z,15.10
2018-09-26T22:40:47.571Z,15.20
2018-09-26T22:43:15.877Z,15.30
2018-09-26T22:45:45.161Z,15.20
2018-09-26T22:48:13.432Z,15.20
2018-09-26T22:50:41.713Z,15.20
2018-09-26T22:53:10.013Z,15.20
2018-09-26T22:55:38.391Z,15.20
2018-09-26T22:58:06.971Z,15.20
2018-09-26T23:00:35.263Z,15.20
2018-09-26T23:03:03.674Z,15.20
2018-09-26T23:05:32.171Z,15.10
2018-09-26T23:08:00.482Z,15.00
2018-09-26T23:10:34.444Z,15.00
2018-09-26T23:13:02.760Z,14.90
2018-09-26T23:15:31.049Z,15.00
2018-09-26T23:17:59.458Z,14.90
2018-09-26T23:20:27.818Z,15.00
2018-09-26T23:22:56.227Z,15.00
2018-09-26T23:25:24.595Z,15.00
2018-09-26T23:27:52.952Z,15.10
2018-09-26T23:30:21.308Z,15.10
2018-09-26T23:32:49.625Z,15.10
2018-09-26T23:35:18.005Z,15.10
2018-09-26T23:37:46.379Z,15.10
2018-09-26T23:40:14.695Z,15.10
2018-09-26T23:42:43.020Z,15.00
2018-09-26T23:45:11.271Z,15.00
2018-09-26T23:47:39.574Z,15.00
2018-09-26T23:50:07.845Z,15.00
2018-09-26T23:52:36.169Z,15.00
2018-09-26T23:55:04.509Z,15.10
2018-09-26T23:57:32.893Z,15.00
